Terminal Aerodrome Forecast
Issued by NWS Tulsa, OK

Home | Current Version | Previous Version | Text Only | Print | Product List | Glossary On
Versions: 1 2 3 4 5 6 7 8 9 10 11
325
FTUS44 KTSA 252338
TAFTUL
TAF
KTUL 252338Z 2600/2624 17015G22KT P6SM BKN040 BKN250
     FM260200 19013KT P6SM VCTS BKN035CB BKN250
      TEMPO 2604/2606 VRB30G45KT 2SM TSRA BKN025CB
     FM260600 01011KT P6SM VCSH SCT025 BKN035
     FM260900 35012KT 4SM -SHRA BR BKN010
     FM261400 34014G24KT P6SM VCSH BKN008 BKN012
     FM262100 33013G20KT P6SM BKN025=

USA.gov is the U.S. government's official web portal to all federal, state and local government web resources and services.